Terminal Aerodrome Forecast
Issued by NWS

Home | Current Version | Previous Version | Graphics & Text | Print | Product List | Glossary On
Versions: 1 2 3 4 5 6 7 8 9 10 11 12 13 14 15 16 17 18 19 20
087
FTUS43 KBIS 250124 AAA
TAFDIK
TAF AMD
KDIK 250124Z 2501/2524 12016KT P6SM SCT130
     FM250900 16013KT P6SM SCT250 WS020/19040KT
     FM251400 17014KT P6SM SCT200=

USA.gov is the U.S. government's official web portal to all federal, state and local government web resources and services.